sensor_id;sensor_type;location;lat;lon;timestamp;temperature;humidity
18392;DHT22;9322;50.932;5.318;2023-04-24T00:00:04;10.00;99.90
18392;DHT22;9322;50.932;5.318;2023-04-24T00:02:38;10.10;99.90
18392;DHT22;9322;50.932;5.318;2023-04-24T00:05:07;10.10;99.90
18392;DHT22;9322;50.932;5.318;2023-04-24T00:07:34;9.90;99.90
18392;DHT22;9322;50.932;5.318;2023-04-24T00:10:00;9.90;99.90
18392;DHT22;9322;50.932;5.318;2023-04-24T00:12:26;9.80;99.90
18392;DHT22;9322;50.932;5.318;2023-04-24T00:14:52;9.90;99.90
18392;DHT22;9322;50.932;5.318;2023-04-24T00:17:18;9.90;99.90
18392;DHT22;9322;50.932;5.318;2023-04-24T00:19:47;10.00;99.90
18392;DHT22;9322;50.932;5.318;2023-04-24T00:22:12;10.10;99.90
18392;DHT22;9322;50.932;5.318;2023-04-24T00:24:41;9.90;99.90
18392;DHT22;9322;50.932;5.318;2023-04-24T00:27:07;9.90;99.90
18392;DHT22;9322;50.932;5.318;2023-04-24T00:29:32;9.80;99.90
18392;DHT22;9322;50.932;5.318;2023-04-24T00:31:58;9.80;99.90
18392;DHT22;9322;50.932;5.318;2023-04-24T00:34:24;9.90;99.90
18392;DHT22;9322;50.932;5.318;2023-04-24T00:36:49;10.00;99.90
18392;DHT22;9322;50.932;5.318;2023-04-24T00:39:18;9.90;99.90
18392;DHT22;9322;50.932;5.318;2023-04-24T00:41:45;10.00;99.90
18392;DHT22;9322;50.932;5.318;2023-04-24T00:44:11;10.10;99.90
18392;DHT22;9322;50.932;5.318;2023-04-24T00:46:37;10.10;99.90
18392;DHT22;9322;50.932;5.318;2023-04-24T00:49:05;10.10;99.90
18392;DHT22;9322;50.932;5.318;2023-04-24T00:51:31;9.90;99.90
18392;DHT22;9322;50.932;5.318;2023-04-24T00:53:59;10.00;99.90
18392;DHT22;9322;50.932;5.318;2023-04-24T00:56:26;10.00;99.90
18392;DHT22;9322;50.932;5.318;2023-04-24T00:58:52;10.00;99.90
18392;DHT22;9322;50.932;5.318;2023-04-24T01:01:21;9.90;99.90
18392;DHT22;9322;50.932;5.318;2023-04-24T01:03:48;10.00;99.90
18392;DHT22;9322;50.932;5.318;2023-04-24T01:06:14;10.00;99.90
18392;DHT22;9322;50.932;5.318;2023-04-24T01:08:41;10.00;99.90
18392;DHT22;9322;50.932;5.318;2023-04-24T01:11:07;10.00;99.90
18392;DHT22;9322;50.932;5.318;2023-04-24T01:13:34;10.10;99.90
18392;DHT22;9322;50.932;5.318;2023-04-24T01:16:00;10.00;99.90
18392;DHT22;9322;50.932;5.318;2023-04-24T01:18:27;10.00;99.90
18392;DHT22;9322;50.932;5.318;2023-04-24T01:20:56;10.10;99.90
18392;DHT22;9322;50.932;5.318;2023-04-24T01:23:22;9.90;99.90
18392;DHT22;9322;50.932;5.318;2023-04-24T01:25:49;9.80;99.90
18392;DHT22;9322;50.932;5.318;2023-04-24T01:28:16;9.80;99.90
18392;DHT22;9322;50.932;5.318;2023-04-24T01:30:43;9.80;99.90
18392;DHT22;9322;50.932;5.318;2023-04-24T01:33:09;9.90;99.90
18392;DHT22;9322;50.932;5.318;2023-04-24T01:35:36;9.90;99.90
18392;DHT22;9322;50.932;5.318;2023-04-24T01:38:03;10.00;99.90
18392;DHT22;9322;50.932;5.318;2023-04-24T01:40:30;10.00;99.90
18392;DHT22;9322;50.932;5.318;2023-04-24T01:42:55;9.80;99.90
18392;DHT22;9322;50.932;5.318;2023-04-24T01:45:21;9.90;99.90
18392;DHT22;9322;50.932;5.318;2023-04-24T01:47:47;9.80;99.90
18392;DHT22;9322;50.932;5.318;2023-04-24T01:50:14;9.70;99.90
18392;DHT22;9322;50.932;5.318;2023-04-24T01:52:40;9.80;99.90
18392;DHT22;9322;50.932;5.318;2023-04-24T01:55:06;9.80;99.90
18392;DHT22;9322;50.932;5.318;2023-04-24T01:57:32;9.70;99.90
18392;DHT22;9322;50.932;5.318;2023-04-24T01:59:58;9.60;99.90
18392;DHT22;9322;50.932;5.318;2023-04-24T02:02:24;9.60;99.90
18392;DHT22;9322;50.932;5.318;2023-04-24T02:04:53;9.70;99.90
18392;DHT22;9322;50.932;5.318;2023-04-24T02:07:19;9.60;99.90
18392;DHT22;9322;50.932;5.318;2023-04-24T02:09:45;9.80;99.90
18392;DHT22;9322;50.932;5.318;2023-04-24T02:12:10;9.90;99.90
18392;DHT22;9322;50.932;5.318;2023-04-24T02:14:36;9.80;99.90
18392;DHT22;9322;50.932;5.318;2023-04-24T02:17:02;9.70;99.90
18392;DHT22;9322;50.932;5.318;2023-04-24T02:19:28;9.60;99.90
18392;DHT22;9322;50.932;5.318;2023-04-24T02:21:53;9.70;99.90
18392;DHT22;9322;50.932;5.318;2023-04-24T02:24:19;9.60;99.90
18392;DHT22;9322;50.932;5.318;2023-04-24T02:26:45;9.70;99.90
18392;DHT22;9322;50.932;5.318;2023-04-24T02:29:10;9.60;99.90
18392;DHT22;9322;50.932;5.318;2023-04-24T02:31:36;9.30;99.90
18392;DHT22;9322;50.932;5.318;2023-04-24T02:34:02;9.50;99.90
18392;DHT22;9322;50.932;5.318;2023-04-24T02:36:27;9.50;99.90
18392;DHT22;9322;50.932;5.318;2023-04-24T02:38:53;9.50;99.90
18392;DHT22;9322;50.932;5.318;2023-04-24T02:41:19;9.50;99.90
18392;DHT22;9322;50.932;5.318;2023-04-24T02:43:45;9.50;99.90
18392;DHT22;9322;50.932;5.318;2023-04-24T02:46:11;9.40;99.90
18392;DHT22;9322;50.932;5.318;2023-04-24T02:48:36;9.30;99.90
18392;DHT22;9322;50.932;5.318;2023-04-24T02:51:02;9.20;99.90
18392;DHT22;9322;50.932;5.318;2023-04-24T02:53:28;9.30;99.90
18392;DHT22;9322;50.932;5.318;2023-04-24T02:55:56;9.30;99.90
18392;DHT22;9322;50.932;5.318;2023-04-24T02:58:22;9.20;99.90
18392;DHT22;9322;50.932;5.318;2023-04-24T03:00:47;9.40;99.90
18392;DHT22;9322;50.932;5.318;2023-04-24T03:03:13;9.30;99.90
18392;DHT22;9322;50.932;5.318;2023-04-24T03:05:40;9.30;99.90
18392;DHT22;9322;50.932;5.318;2023-04-24T03:08:06;9.30;99.90
18392;DHT22;9322;50.932;5.318;2023-04-24T03:10:32;9.20;99.90
18392;DHT22;9322;50.932;5.318;2023-04-24T03:12:58;9.10;99.90
18392;DHT22;9322;50.932;5.318;2023-04-24T03:15:23;9.10;99.90
18392;DHT22;9322;50.932;5.318;2023-04-24T03:17:49;9.10;99.90
18392;DHT22;9322;50.932;5.318;2023-04-24T03:20:15;9.10;99.90
18392;DHT22;9322;50.932;5.318;2023-04-24T03:22:41;9.10;99.90
18392;DHT22;9322;50.932;5.318;2023-04-24T03:25:07;9.00;99.90
18392;DHT22;9322;50.932;5.318;2023-04-24T03:27:34;9.10;99.90
18392;DHT22;9322;50.932;5.318;2023-04-24T03:30:00;9.20;99.90
18392;DHT22;9322;50.932;5.318;2023-04-24T03:32:26;9.30;99.90
18392;DHT22;9322;50.932;5.318;2023-04-24T03:34:52;9.10;99.90
18392;DHT22;9322;50.932;5.318;2023-04-24T03:37:18;9.20;99.90
18392;DHT22;9322;50.932;5.318;2023-04-24T03:39:44;9.00;99.90
18392;DHT22;9322;50.932;5.318;2023-04-24T03:42:10;9.00;99.90
18392;DHT22;9322;50.932;5.318;2023-04-24T03:44:36;9.10;99.90
18392;DHT22;9322;50.932;5.318;2023-04-24T03:47:02;9.20;99.90
18392;DHT22;9322;50.932;5.318;2023-04-24T03:49:27;9.10;99.90
18392;DHT22;9322;50.932;5.318;2023-04-24T03:51:53;9.10;99.90
18392;DHT22;9322;50.932;5.318;2023-04-24T03:54:19;9.20;99.90
18392;DHT22;9322;50.932;5.318;2023-04-24T03:56:46;9.20;99.90
18392;DHT22;9322;50.932;5.318;2023-04-24T03:59:11;9.20;99.90
18392;DHT22;9322;50.932;5.318;2023-04-24T04:01:38;9.00;99.90
18392;DHT22;9322;50.932;5.318;2023-04-24T04:04:05;9.20;99.90
18392;DHT22;9322;50.932;5.318;2023-04-24T04:06:31;9.20;99.90
18392;DHT22;9322;50.932;5.318;2023-04-24T04:08:58;9.20;99.90
18392;DHT22;9322;50.932;5.318;2023-04-24T04:11:24;9.10;99.90
18392;DHT22;9322;50.932;5.318;2023-04-24T04:13:49;9.10;99.90
18392;DHT22;9322;50.932;5.318;2023-04-24T04:16:16;9.00;99.90
18392;DHT22;9322;50.932;5.318;2023-04-24T04:18:45;9.10;99.90
18392;DHT22;9322;50.932;5.318;2023-04-24T04:21:11;9.10;99.90
18392;DHT22;9322;50.932;5.318;2023-04-24T04:23:36;9.30;99.90
18392;DHT22;9322;50.932;5.318;2023-04-24T04:26:03;9.00;99.90
18392;DHT22;9322;50.932;5.318;2023-04-24T04:28:29;8.80;99.90
18392;DHT22;9322;50.932;5.318;2023-04-24T04:30:57;8.70;99.90
18392;DHT22;9322;50.932;5.318;2023-04-24T04:33:24;8.80;99.90
18392;DHT22;9322;50.932;5.318;2023-04-24T04:35:50;8.50;99.90
18392;DHT22;9322;50.932;5.318;2023-04-24T04:38:22;8.60;99.90
18392;DHT22;9322;50.932;5.318;2023-04-24T04:40:48;8.50;99.90
18392;DHT22;9322;50.932;5.318;2023-04-24T04:43:13;8.50;99.90
18392;DHT22;9322;50.932;5.318;2023-04-24T04:45:40;8.50;99.90
18392;DHT22;9322;50.932;5.318;2023-04-24T04:48:08;8.50;99.90
18392;DHT22;9322;50.932;5.318;2023-04-24T04:50:35;8.70;99.90
18392;DHT22;9322;50.932;5.318;2023-04-24T04:53:00;8.60;99.90
18392;DHT22;9322;50.932;5.318;2023-04-24T04:55:26;8.70;99.90
18392;DHT22;9322;50.932;5.318;2023-04-24T04:57:52;8.60;99.90
18392;DHT22;9322;50.932;5.318;2023-04-24T05:00:18;8.70;99.90
18392;DHT22;9322;50.932;5.318;2023-04-24T05:02:44;8.80;99.90
18392;DHT22;9322;50.932;5.318;2023-04-24T05:05:10;8.80;99.90
18392;DHT22;9322;50.932;5.318;2023-04-24T05:07:36;8.80;99.90
18392;DHT22;9322;50.932;5.318;2023-04-24T05:10:02;8.90;99.90
18392;DHT22;9322;50.932;5.318;2023-04-24T05:12:28;8.90;99.90
18392;DHT22;9322;50.932;5.318;2023-04-24T05:14:54;8.90;99.90
18392;DHT22;9322;50.932;5.318;2023-04-24T05:17:20;9.10;99.90
18392;DHT22;9322;50.932;5.318;2023-04-24T05:19:46;9.10;99.90
18392;DHT22;9322;50.932;5.318;2023-04-24T05:22:12;9.20;99.90
18392;DHT22;9322;50.932;5.318;2023-04-24T05:24:38;9.20;99.90
18392;DHT22;9322;50.932;5.318;2023-04-24T05:27:04;9.20;99.90
18392;DHT22;9322;50.932;5.318;2023-04-24T05:29:33;9.30;99.90
18392;DHT22;9322;50.932;5.318;2023-04-24T05:31:59;9.30;99.90
18392;DHT22;9322;50.932;5.318;2023-04-24T05:34:25;9.20;99.90
18392;DHT22;9322;50.932;5.318;2023-04-24T05:36:51;9.20;99.90
18392;DHT22;9322;50.932;5.318;2023-04-24T05:39:17;9.30;99.90
18392;DHT22;9322;50.932;5.318;2023-04-24T05:41:43;9.10;99.90
18392;DHT22;9322;50.932;5.318;2023-04-24T05:44:09;9.20;99.90
18392;DHT22;9322;50.932;5.318;2023-04-24T05:46:35;9.20;99.90
18392;DHT22;9322;50.932;5.318;2023-04-24T05:49:01;9.30;99.90
18392;DHT22;9322;50.932;5.318;2023-04-24T05:51:28;9.30;99.90
18392;DHT22;9322;50.932;5.318;2023-04-24T05:53:53;9.30;99.90
18392;DHT22;9322;50.932;5.318;2023-04-24T05:56:19;9.10;99.90
18392;DHT22;9322;50.932;5.318;2023-04-24T05:58:46;9.10;99.90
18392;DHT22;9322;50.932;5.318;2023-04-24T06:01:12;9.00;99.90
18392;DHT22;9322;50.932;5.318;2023-04-24T06:03:38;8.90;99.90
18392;DHT22;9322;50.932;5.318;2023-04-24T06:06:06;8.90;99.90
18392;DHT22;9322;50.932;5.318;2023-04-24T06:08:32;8.80;99.90
18392;DHT22;9322;50.932;5.318;2023-04-24T06:10:58;8.80;99.90
18392;DHT22;9322;50.932;5.318;2023-04-24T06:13:24;8.80;99.90
18392;DHT22;9322;50.932;5.318;2023-04-24T06:15:51;8.90;99.90
18392;DHT22;9322;50.932;5.318;2023-04-24T06:18:17;8.90;99.90
18392;DHT22;9322;50.932;5.318;2023-04-24T06:20:43;8.90;99.90
18392;DHT22;9322;50.932;5.318;2023-04-24T06:23:08;9.00;99.90
18392;DHT22;9322;50.932;5.318;2023-04-24T06:25:34;9.10;99.90
18392;DHT22;9322;50.932;5.318;2023-04-24T06:28:00;9.10;99.90
18392;DHT22;9322;50.932;5.318;2023-04-24T06:30:27;9.10;99.90
18392;DHT22;9322;50.932;5.318;2023-04-24T06:32:53;8.80;99.90
18392;DHT22;9322;50.932;5.318;2023-04-24T06:35:19;8.90;99.90
18392;DHT22;9322;50.932;5.318;2023-04-24T06:37:45;8.80;99.90
18392;DHT22;9322;50.932;5.318;2023-04-24T06:40:11;8.70;99.90
18392;DHT22;9322;50.932;5.318;2023-04-24T06:42:37;8.80;99.90
18392;DHT22;9322;50.932;5.318;2023-04-24T06:45:03;8.70;99.90
18392;DHT22;9322;50.932;5.318;2023-04-24T06:47:29;8.80;99.90
18392;DHT22;9322;50.932;5.318;2023-04-24T06:49:55;8.70;99.90
18392;DHT22;9322;50.932;5.318;2023-04-24T06:52:21;8.70;99.90
18392;DHT22;9322;50.932;5.318;2023-04-24T06:54:47;8.80;99.90
18392;DHT22;9322;50.932;5.318;2023-04-24T06:57:13;8.90;99.90
18392;DHT22;9322;50.932;5.318;2023-04-24T06:59:38;8.80;99.90
18392;DHT22;9322;50.932;5.318;2023-04-24T07:02:04;8.80;99.90
18392;DHT22;9322;50.932;5.318;2023-04-24T07:04:30;9.00;99.90
18392;DHT22;9322;50.932;5.318;2023-04-24T07:06:56;9.10;99.90
18392;DHT22;9322;50.932;5.318;2023-04-24T07:09:26;9.10;99.90
18392;DHT22;9322;50.932;5.318;2023-04-24T07:11:53;9.10;99.90
18392;DHT22;9322;50.932;5.318;2023-04-24T07:14:19;9.20;99.90
18392;DHT22;9322;50.932;5.318;2023-04-24T07:16:46;9.30;99.90
18392;DHT22;9322;50.932;5.318;2023-04-24T07:19:12;9.40;99.90
18392;DHT22;9322;50.932;5.318;2023-04-24T07:21:39;9.40;99.90
18392;DHT22;9322;50.932;5.318;2023-04-24T07:24:05;9.50;99.90
18392;DHT22;9322;50.932;5.318;2023-04-24T07:26:34;9.40;99.90
18392;DHT22;9322;50.932;5.318;2023-04-24T07:29:00;9.40;99.90
18392;DHT22;9322;50.932;5.318;2023-04-24T07:31:26;9.50;99.90
18392;DHT22;9322;50.932;5.318;2023-04-24T07:33:52;9.50;99.90
18392;DHT22;9322;50.932;5.318;2023-04-24T07:36:17;9.60;99.90
18392;DHT22;9322;50.932;5.318;2023-04-24T07:38:45;9.60;99.90
18392;DHT22;9322;50.932;5.318;2023-04-24T07:41:11;9.50;99.90
18392;DHT22;9322;50.932;5.318;2023-04-24T07:43:37;9.40;99.90
18392;DHT22;9322;50.932;5.318;2023-04-24T07:46:03;9.50;99.90
18392;DHT22;9322;50.932;5.318;2023-04-24T07:48:28;9.60;99.90
18392;DHT22;9322;50.932;5.318;2023-04-24T07:50:54;9.60;99.90
18392;DHT22;9322;50.932;5.318;2023-04-24T07:53:20;9.50;99.90
18392;DHT22;9322;50.932;5.318;2023-04-24T07:55:46;9.40;99.90
18392;DHT22;9322;50.932;5.318;2023-04-24T07:58:11;9.40;99.90
18392;DHT22;9322;50.932;5.318;2023-04-24T08:00:37;9.40;99.90
18392;DHT22;9322;50.932;5.318;2023-04-24T08:03:03;9.30;99.90
18392;DHT22;9322;50.932;5.318;2023-04-24T08:05:29;9.30;99.90
18392;DHT22;9322;50.932;5.318;2023-04-24T08:07:55;9.30;99.90
18392;DHT22;9322;50.932;5.318;2023-04-24T08:10:22;9.30;99.90
18392;DHT22;9322;50.932;5.318;2023-04-24T08:12:48;9.30;99.90
18392;DHT22;9322;50.932;5.318;2023-04-24T08:15:14;9.40;99.90
18392;DHT22;9322;50.932;5.318;2023-04-24T08:17:39;9.40;99.90
18392;DHT22;9322;50.932;5.318;2023-04-24T08:20:06;9.40;99.90
18392;DHT22;9322;50.932;5.318;2023-04-24T08:22:35;9.40;99.90
18392;DHT22;9322;50.932;5.318;2023-04-24T08:25:01;9.50;99.90
18392;DHT22;9322;50.932;5.318;2023-04-24T08:27:27;9.70;99.90
18392;DHT22;9322;50.932;5.318;2023-04-24T08:29:53;9.80;99.90
18392;DHT22;9322;50.932;5.318;2023-04-24T08:32:19;9.90;99.90
18392;DHT22;9322;50.932;5.318;2023-04-24T08:34:45;10.10;99.90
18392;DHT22;9322;50.932;5.318;2023-04-24T08:37:11;10.20;99.90
18392;DHT22;9322;50.932;5.318;2023-04-24T08:39:37;10.40;99.90
18392;DHT22;9322;50.932;5.318;2023-04-24T08:42:04;10.50;99.90
18392;DHT22;9322;50.932;5.318;2023-04-24T08:44:34;10.60;99.90
18392;DHT22;9322;50.932;5.318;2023-04-24T08:47:02;10.80;99.90
18392;DHT22;9322;50.932;5.318;2023-04-24T08:49:29;11.10;99.90
18392;DHT22;9322;50.932;5.318;2023-04-24T08:51:55;11.50;99.90
18392;DHT22;9322;50.932;5.318;2023-04-24T08:54:21;11.40;99.90
18392;DHT22;9322;50.932;5.318;2023-04-24T08:56:48;11.40;99.90
18392;DHT22;9322;50.932;5.318;2023-04-24T08:59:15;11.50;99.90
18392;DHT22;9322;50.932;5.318;2023-04-24T09:01:41;11.40;99.90
18392;DHT22;9322;50.932;5.318;2023-04-24T09:04:09;11.10;99.90
18392;DHT22;9322;50.932;5.318;2023-04-24T09:06:39;10.80;99.90
18392;DHT22;9322;50.932;5.318;2023-04-24T09:09:05;10.50;99.90
18392;DHT22;9322;50.932;5.318;2023-04-24T09:11:32;10.50;99.90
18392;DHT22;9322;50.932;5.318;2023-04-24T09:14:01;10.50;99.90
18392;DHT22;9322;50.932;5.318;2023-04-24T09:16:27;10.10;99.90
18392;DHT22;9322;50.932;5.318;2023-04-24T09:18:53;10.30;99.90
18392;DHT22;9322;50.932;5.318;2023-04-24T09:21:21;10.10;99.90
18392;DHT22;9322;50.932;5.318;2023-04-24T09:23:58;10.00;99.90
18392;DHT22;9322;50.932;5.318;2023-04-24T09:26:33;10.10;99.90
18392;DHT22;9322;50.932;5.318;2023-04-24T09:29:00;10.30;99.90
18392;DHT22;9322;50.932;5.318;2023-04-24T09:31:28;10.90;99.90
18392;DHT22;9322;50.932;5.318;2023-04-24T09:33:55;11.10;99.90
18392;DHT22;9322;50.932;5.318;2023-04-24T09:38:58;12.50;99.90
18392;DHT22;9322;50.932;5.318;2023-04-24T09:41:24;13.30;99.90
18392;DHT22;9322;50.932;5.318;2023-04-24T09:43:49;13.30;1.40
18392;DHT22;9322;50.932;5.318;2023-04-24T09:46:18;14.10;1.40
18392;DHT22;9322;50.932;5.318;2023-04-24T09:48:44;14.90;1.40
18392;DHT22;9322;50.932;5.318;2023-04-24T09:51:09;14.50;1.40
18392;DHT22;9322;50.932;5.318;2023-04-24T09:53:39;14.80;1.40
18392;DHT22;9322;50.932;5.318;2023-04-24T09:56:09;14.90;1.40
18392;DHT22;9322;50.932;5.318;2023-04-24T09:58:36;14.80;1.40
18392;DHT22;9322;50.932;5.318;2023-04-24T10:01:02;14.20;1.40
18392;DHT22;9322;50.932;5.318;2023-04-24T10:03:34;14.30;1.40
18392;DHT22;9322;50.932;5.318;2023-04-24T10:06:01;15.10;1.40
18392;DHT22;9322;50.932;5.318;2023-04-24T10:08:33;15.10;1.40
18392;DHT22;9322;50.932;5.318;2023-04-24T10:11:00;15.20;1.40
18392;DHT22;9322;50.932;5.318;2023-04-24T10:13:26;14.80;1.40
18392;DHT22;9322;50.932;5.318;2023-04-24T10:15:53;14.90;1.40
18392;DHT22;9322;50.932;5.318;2023-04-24T10:18:20;15.20;1.40
18392;DHT22;9322;50.932;5.318;2023-04-24T10:20:47;14.80;1.40
18392;DHT22;9322;50.932;5.318;2023-04-24T10:23:12;14.40;1.40
18392;DHT22;9322;50.932;5.318;2023-04-24T10:25:38;14.20;1.40
18392;DHT22;9322;50.932;5.318;2023-04-24T10:28:05;13.40;1.40
18392;DHT22;9322;50.932;5.318;2023-04-24T10:30:32;13.00;1.40
18392;DHT22;9322;50.932;5.318;2023-04-24T10:33:01;13.30;1.40
18392;DHT22;9322;50.932;5.318;2023-04-24T10:35:30;13.80;1.40
18392;DHT22;9322;50.932;5.318;2023-04-24T10:40:30;14.80;1.40
18392;DHT22;9322;50.932;5.318;2023-04-24T10:42:57;15.30;1.40
18392;DHT22;9322;50.932;5.318;2023-04-24T10:45:23;15.50;1.40
18392;DHT22;9322;50.932;5.318;2023-04-24T10:48:04;15.40;1.40
18392;DHT22;9322;50.932;5.318;2023-04-24T10:53:16;14.30;1.40
18392;DHT22;9322;50.932;5.318;2023-04-24T10:55:48;14.00;1.40
18392;DHT22;9322;50.932;5.318;2023-04-24T10:58:16;13.60;1.40
18392;DHT22;9322;50.932;5.318;2023-04-24T11:00:43;13.40;1.40
18392;DHT22;9322;50.932;5.318;2023-04-24T11:03:27;13.50;1.40
18392;DHT22;9322;50.932;5.318;2023-04-24T11:08:27;13.30;1.40
18392;DHT22;9322;50.932;5.318;2023-04-24T11:13:25;12.90;1.40
18392;DHT22;9322;50.932;5.318;2023-04-24T11:16:26;13.10;1.40
18392;DHT22;9322;50.932;5.318;2023-04-24T11:19:07;12.90;1.40
18392;DHT22;9322;50.932;5.318;2023-04-24T11:22:00;12.90;1.40
18392;DHT22;9322;50.932;5.318;2023-04-24T11:26:55;12.60;1.40
18392;DHT22;9322;50.932;5.318;2023-04-24T11:29:21;13.00;1.40
18392;DHT22;9322;50.932;5.318;2023-04-24T11:31:50;13.30;1.40
18392;DHT22;9322;50.932;5.318;2023-04-24T11:34:17;13.60;1.40
18392;DHT22;9322;50.932;5.318;2023-04-24T11:36:44;13.60;1.40
18392;DHT22;9322;50.932;5.318;2023-04-24T11:39:11;13.70;1.40
18392;DHT22;9322;50.932;5.318;2023-04-24T11:41:37;13.60;1.40
18392;DHT22;9322;50.932;5.318;2023-04-24T11:44:06;14.20;1.40
18392;DHT22;9322;50.932;5.318;2023-04-24T11:46:32;15.50;1.40
18392;DHT22;9322;50.932;5.318;2023-04-24T11:48:58;15.90;1.40
18392;DHT22;9322;50.932;5.318;2023-04-24T11:51:25;15.90;1.40
18392;DHT22;9322;50.932;5.318;2023-04-24T11:53:53;16.00;1.40
18392;DHT22;9322;50.932;5.318;2023-04-24T11:56:21;14.90;1.40
18392;DHT22;9322;50.932;5.318;2023-04-24T11:58:47;14.50;1.40
18392;DHT22;9322;50.932;5.318;2023-04-24T12:01:13;14.30;1.40
18392;DHT22;9322;50.932;5.318;2023-04-24T12:03:39;14.70;1.40
18392;DHT22;9322;50.932;5.318;2023-04-24T12:06:09;14.50;1.40
18392;DHT22;9322;50.932;5.318;2023-04-24T12:08:36;14.80;1.40
18392;DHT22;9322;50.932;5.318;2023-04-24T12:11:03;15.70;1.40
18392;DHT22;9322;50.932;5.318;2023-04-24T12:13:30;16.00;1.40
18392;DHT22;9322;50.932;5.318;2023-04-24T12:15:59;15.90;1.40
18392;DHT22;9322;50.932;5.318;2023-04-24T12:18:27;15.70;1.40
18392;DHT22;9322;50.932;5.318;2023-04-24T12:20:52;15.10;1.40
18392;DHT22;9322;50.932;5.318;2023-04-24T12:23:34;14.70;1.40
18392;DHT22;9322;50.932;5.318;2023-04-24T12:26:04;14.60;1.40
18392;DHT22;9322;50.932;5.318;2023-04-24T12:28:38;15.00;1.40
18392;DHT22;9322;50.932;5.318;2023-04-24T12:31:04;15.10;1.40
18392;DHT22;9322;50.932;5.318;2023-04-24T12:33:34;15.00;1.40
18392;DHT22;9322;50.932;5.318;2023-04-24T12:36:00;15.00;1.40
18392;DHT22;9322;50.932;5.318;2023-04-24T12:38:27;15.30;1.40
18392;DHT22;9322;50.932;5.318;2023-04-24T12:41:17;15.40;1.40
18392;DHT22;9322;50.932;5.318;2023-04-24T12:43:51;15.20;1.40
18392;DHT22;9322;50.932;5.318;2023-04-24T12:46:17;15.40;1.40
18392;DHT22;9322;50.932;5.318;2023-04-24T12:48:43;15.70;1.40
18392;DHT22;9322;50.932;5.318;2023-04-24T12:51:09;15.90;1.40
18392;DHT22;9322;50.932;5.318;2023-04-24T12:53:34;16.00;1.40
18392;DHT22;9322;50.932;5.318;2023-04-24T12:56:00;15.60;1.40
18392;DHT22;9322;50.932;5.318;2023-04-24T12:58:26;15.30;1.40
18392;DHT22;9322;50.932;5.318;2023-04-24T13:00:51;15.20;1.40
18392;DHT22;9322;50.932;5.318;2023-04-24T13:03:18;14.90;1.40
18392;DHT22;9322;50.932;5.318;2023-04-24T13:05:44;14.70;1.40
18392;DHT22;9322;50.932;5.318;2023-04-24T13:08:10;14.70;1.40
18392;DHT22;9322;50.932;5.318;2023-04-24T13:10:35;14.80;1.40
18392;DHT22;9322;50.932;5.318;2023-04-24T13:13:02;15.00;1.40
18392;DHT22;9322;50.932;5.318;2023-04-24T13:15:28;15.20;1.40
18392;DHT22;9322;50.932;5.318;2023-04-24T13:17:54;15.40;1.40
18392;DHT22;9322;50.932;5.318;2023-04-24T13:20:20;15.70;1.40
18392;DHT22;9322;50.932;5.318;2023-04-24T13:22:46;15.80;1.40
18392;DHT22;9322;50.932;5.318;2023-04-24T13:25:11;15.60;1.40
18392;DHT22;9322;50.932;5.318;2023-04-24T13:27:40;15.50;1.40
18392;DHT22;9322;50.932;5.318;2023-04-24T13:30:07;15.40;1.40
18392;DHT22;9322;50.932;5.318;2023-04-24T13:32:33;15.00;1.40
18392;DHT22;9322;50.932;5.318;2023-04-24T13:35:00;15.50;1.40
18392;DHT22;9322;50.932;5.318;2023-04-24T13:37:26;15.80;1.40
18392;DHT22;9322;50.932;5.318;2023-04-24T13:39:52;15.90;1.40
18392;DHT22;9322;50.932;5.318;2023-04-24T13:42:17;15.40;1.40
18392;DHT22;9322;50.932;5.318;2023-04-24T13:44:44;15.20;1.40
18392;DHT22;9322;50.932;5.318;2023-04-24T13:47:09;15.30;1.40
18392;DHT22;9322;50.932;5.318;2023-04-24T13:49:35;14.70;1.40
18392;DHT22;9322;50.932;5.318;2023-04-24T13:52:02;14.90;1.40
18392;DHT22;9322;50.932;5.318;2023-04-24T13:54:27;15.20;1.40
18392;DHT22;9322;50.932;5.318;2023-04-24T13:56:53;14.60;1.40
18392;DHT22;9322;50.932;5.318;2023-04-24T13:59:20;14.50;1.40
18392;DHT22;9322;50.932;5.318;2023-04-24T14:01:46;15.10;1.40
18392;DHT22;9322;50.932;5.318;2023-04-24T14:04:13;15.20;1.40
18392;DHT22;9322;50.932;5.318;2023-04-24T14:06:38;15.30;1.40
18392;DHT22;9322;50.932;5.318;2023-04-24T14:09:04;15.30;1.40
18392;DHT22;9322;50.932;5.318;2023-04-24T14:11:30;15.20;1.40
18392;DHT22;9322;50.932;5.318;2023-04-24T14:13:55;15.10;1.40
18392;DHT22;9322;50.932;5.318;2023-04-24T14:16:24;15.40;1.40
18392;DHT22;9322;50.932;5.318;2023-04-24T14:18:50;15.40;1.40
18392;DHT22;9322;50.932;5.318;2023-04-24T14:21:16;15.70;1.40
18392;DHT22;9322;50.932;5.318;2023-04-24T14:23:41;15.70;1.40
18392;DHT22;9322;50.932;5.318;2023-04-24T14:26:07;15.60;1.40
18392;DHT22;9322;50.932;5.318;2023-04-24T14:28:33;15.60;1.40
18392;DHT22;9322;50.932;5.318;2023-04-24T14:30:59;15.10;1.40
18392;DHT22;9322;50.932;5.318;2023-04-24T14:33:24;14.80;1.40
18392;DHT22;9322;50.932;5.318;2023-04-24T14:35:50;14.90;1.40
18392;DHT22;9322;50.932;5.318;2023-04-24T14:38:16;14.50;1.40
18392;DHT22;9322;50.932;5.318;2023-04-24T14:40:42;14.80;1.40
18392;DHT22;9322;50.932;5.318;2023-04-24T14:43:07;15.00;1.40
18392;DHT22;9322;50.932;5.318;2023-04-24T14:45:33;15.30;1.40
18392;DHT22;9322;50.932;5.318;2023-04-24T14:47:59;15.50;1.40
18392;DHT22;9322;50.932;5.318;2023-04-24T14:50:25;15.70;1.40
18392;DHT22;9322;50.932;5.318;2023-04-24T14:52:56;15.60;1.40
18392;DHT22;9322;50.932;5.318;2023-04-24T14:55:25;15.30;1.40
18392;DHT22;9322;50.932;5.318;2023-04-24T14:57:51;15.50;1.40
18392;DHT22;9322;50.932;5.318;2023-04-24T15:00:17;15.30;1.40
18392;DHT22;9322;50.932;5.318;2023-04-24T15:02:43;15.10;1.40
18392;DHT22;9322;50.932;5.318;2023-04-24T15:05:10;14.80;1.40
18392;DHT22;9322;50.932;5.318;2023-04-24T15:07:36;14.80;1.40
18392;DHT22;9322;50.932;5.318;2023-04-24T15:10:03;15.00;1.40
18392;DHT22;9322;50.932;5.318;2023-04-24T15:12:29;15.20;1.40
18392;DHT22;9322;50.932;5.318;2023-04-24T15:14:55;15.30;1.40
18392;DHT22;9322;50.932;5.318;2023-04-24T15:17:21;15.40;1.40
18392;DHT22;9322;50.932;5.318;2023-04-24T15:19:46;15.30;1.40
18392;DHT22;9322;50.932;5.318;2023-04-24T15:22:12;15.20;1.40
18392;DHT22;9322;50.932;5.318;2023-04-24T15:24:38;15.20;1.40
18392;DHT22;9322;50.932;5.318;2023-04-24T15:27:04;15.30;1.40
18392;DHT22;9322;50.932;5.318;2023-04-24T15:29:29;15.20;1.40
18392;DHT22;9322;50.932;5.318;2023-04-24T15:31:55;15.10;1.40
18392;DHT22;9322;50.932;5.318;2023-04-24T15:34:21;15.20;1.40
18392;DHT22;9322;50.932;5.318;2023-04-24T15:36:46;15.10;1.40
18392;DHT22;9322;50.932;5.318;2023-04-24T15:39:12;14.70;1.40
18392;DHT22;9322;50.932;5.318;2023-04-24T15:41:38;14.50;1.40
18392;DHT22;9322;50.932;5.318;2023-04-24T15:44:03;14.40;1.40
18392;DHT22;9322;50.932;5.318;2023-04-24T15:46:29;14.30;1.40
18392;DHT22;9322;50.932;5.318;2023-04-24T15:48:55;14.00;1.40
18392;DHT22;9322;50.932;5.318;2023-04-24T15:51:20;13.70;1.40
18392;DHT22;9322;50.932;5.318;2023-04-24T15:53:46;13.80;1.40
18392;DHT22;9322;50.932;5.318;2023-04-24T15:56:12;14.00;1.40
18392;DHT22;9322;50.932;5.318;2023-04-24T15:58:38;14.10;1.40
18392;DHT22;9322;50.932;5.318;2023-04-24T16:01:04;13.90;1.40
18392;DHT22;9322;50.932;5.318;2023-04-24T16:03:29;13.70;1.40
18392;DHT22;9322;50.932;5.318;2023-04-24T16:05:55;13.80;1.40
18392;DHT22;9322;50.932;5.318;2023-04-24T16:08:21;13.90;1.40
18392;DHT22;9322;50.932;5.318;2023-04-24T16:10:47;14.00;1.40